Sayre, OK (73662)

12:23 AM CST on November 18, 2017 (GMT -0600)
Clinton-Sherman | | Change Station
Active Advisory: Wind Advisory

Elev 1919 ft 35.34 °N, 99.20 °W | Updated 30 minutes ago

Partly Cloudy
Partly Cloudy
62 °F
Feels Like 62 °F
N
10
Wind Variable Wind from SW

Today
High -- | Low -- °F
--% Chance of Precip.
Yesterday
High -- | Low -- °F
Precip. -- in
Pressure 29.54 in
Visibility 10.0 miles
Clouds Clear
Dew Point 39 °F
Humidity 43%
Rainfall 0.00 in
Snow Depth Not available.
7:16 AM 5:30 PM
Waning Crescent, 0% visible
METAR KCSM 180553Z 23009KT 10SM CLR 17/04 A2959 RMK AO2 SLP001 T01670039 10244 20167 403110117 58008
Pressure 29.54 in
Visibility 10.0 miles
Clouds Clear
Dew Point 39 °F
Humidity 43%
Rainfall 0.00 in
Snow Depth Not available.
7:16 AM 5:30 PM
Waning Crescent, 0% visible
METAR KCSM 180553Z 23009KT 10SM CLR 17/04 A2959 RMK AO2 SLP001 T01670039 10244 20167 403110117 58008

Get Your Daily Forecast Email!

Thanks for signing up!

Be on the lookout for a verification email in your inbox.

You'll start receiving severe weather alerts in your inbox..

×

10-Day Weather Forecast

Almanac

Astronomy

Nov. 18, 2017 Rise Set
Actual Time
Civil Twilight
Nautical Twilight
Astronomical Twilight
Moon
Length of Visible Light
Length of Day
Tomorrow will be .
, % of the Moon is Illuminated

Today's Extremes

State Highs State Lows

Community

WunderPhotos

Category 6

Welcome to Category 6. This is the collective home for Weather Underground's featured writeups by Dr. Jeff Masters (right), Bob Henson (left), Chris Burt, and other regular contributors.

Nearby

Air Quality

  Air Quality AQ Index Pollutant
Not available.

Snow Depth

Station Depth Elevation

Earthquake Activity

City Distance Mag. Time & Date
Minimum magnitude displayed is 2.5.

Coastal Water Temperatures

Place Temperature

Stations

Nearby Weather Stations

Station Location Temp. Windchill Dew Point Humidity Wind Precip. Elev Updated Type
                   

Watches & Warnings

Wind Advisory
Issued: 10:02 PM CST Nov. 17, 2017 – National Weather Service

... Wind Advisory remains in effect until 3 PM CST Saturday...

* timing... early Saturday morning through early Saturday
afternoon.

* Winds... northwest 20 to 30 mph with gusts up to 45 mph.

* Impacts... gusty winds will blow around unsecured objects. Tree
limbs could be blown down and a few power outages may result.

Precautionary/preparedness actions...

A Wind Advisory means that winds of 35 mph are expected. Winds
this strong can make driving difficult, especially for high
profile vehicles. Use extra caution.